Time;durP1;ratioP1;P1;durP2;ratioP2;P2;SDS_P1;SDS_P2;PMS_P1;PMS_P2;Temp;Humidity;BMP_temperature;BMP_pressure;BME280_temperature;BME280_humidity;BME280_pressure;Samples;Min_cycle;Max_cycle;Signal;HPM_P1;HPM_P2
2022/08/04 00:02:58;;;;;;;19.92;15.57;;;;;;;;;;6251210;28;20515;-59
2022/08/04 00:06:04;;;;;;;21.25;16.60;;;;;;;;;;6250791;28;20499;-60
2022/08/04 00:09:18;;;;;;;24.75;16.88;;;;;;;;;;6252732;28;20609;-59
2022/08/04 00:12:23;;;;;;;22.20;16.48;;;;;;;;;;6249413;28;20094;-60
2022/08/04 00:15:25;;;;;;;25.00;17.90;;;;;;;;;;6247659;28;20075;-60
2022/08/04 00:18:33;;;;;;;24.77;17.65;;;;;;;;;;6250317;28;20056;-60
2022/08/04 00:21:38;;;;;;;23.15;16.80;;;;;;;;;;6251932;28;20098;-59
2022/08/04 00:24:40;;;;;;;24.77;17.67;;;;;;;;;;6252375;28;20044;-59
2022/08/04 00:27:40;;;;;;;25.23;17.15;;;;;;;;;;6252934;28;20167;-56
2022/08/04 00:30:41;;;;;;;21.30;16.90;;;;;;;;;;6253254;28;20504;-60
2022/08/04 00:33:43;;;;;;;24.50;17.43;;;;;;;;;;6250649;28;20900;-58
2022/08/04 00:36:44;;;;;;;22.98;17.45;;;;;;;;;;6250207;28;20040;-57
2022/08/04 00:39:46;;;;;;;23.37;17.37;;;;;;;;;;6253629;28;20716;-56
2022/08/04 00:42:53;;;;;;;24.38;17.35;;;;;;;;;;6252293;28;20059;-59
2022/08/04 00:46:11;;;;;;;25.15;17.55;;;;;;;;;;6249439;28;20061;-59
2022/08/04 00:49:53;;;;;;;26.63;18.60;;;;;;;;;;6249760;28;20172;-59
2022/08/04 00:53:17;;;;;;;25.40;17.57;;;;;;;;;;6252709;28;20087;-61
2022/08/04 00:56:48;;;;;;;25.70;17.90;;;;;;;;;;6253635;28;20049;-62
2022/08/04 01:00:08;;;;;;;27.10;18.55;;;;;;;;;;6251519;28;20059;-60
2022/08/04 01:03:39;;;;;;;22.40;17.77;;;;;;;;;;6249091;28;20049;-60
2022/08/04 01:06:50;;;;;;;26.88;18.08;;;;;;;;;;6253334;28;20060;-61
2022/08/04 01:10:03;;;;;;;25.92;18.33;;;;;;;;;;6254539;28;20059;-61
2022/08/04 01:13:22;;;;;;;22.27;17.25;;;;;;;;;;6250301;28;20527;-60
2022/08/04 01:16:26;;;;;;;26.98;18.60;;;;;;;;;;6252252;28;20134;-60
2022/08/04 01:19:52;;;;;;;23.27;17.75;;;;;;;;;;6263055;28;20506;-59
2022/08/04 01:23:20;;;;;;;26.05;18.80;;;;;;;;;;6263584;28;20097;-60
2022/08/04 01:26:27;;;;;;;27.90;18.80;;;;;;;;;;6265375;28;20176;-60
2022/08/04 01:29:34;;;;;;;22.88;17.40;;;;;;;;;;6262529;28;20573;-60
2022/08/04 01:32:52;;;;;;;25.42;19.23;;;;;;;;;;6265923;28;20589;-60
2022/08/04 01:36:04;;;;;;;23.83;18.77;;;;;;;;;;6261074;28;20101;-61
2022/08/04 01:42:25;;;;;;;23.67;18.17;;;;;;;;;;6270045;28;20053;-59
2022/08/04 01:45:28;;;;;;;24.80;19.23;;;;;;;;;;6261743;28;20041;-61
2022/08/04 01:48:29;;;;;;;23.20;17.60;;;;;;;;;;6271235;28;20743;-61
2022/08/04 01:51:34;;;;;;;22.83;17.40;;;;;;;;;;6284898;28;20049;-61
2022/08/04 01:54:41;;;;;;;24.50;18.77;;;;;;;;;;6273120;28;20451;-61
2022/08/04 01:57:41;;;;;;;23.60;18.13;;;;;;;;;;6288550;28;20044;-61
2022/08/04 02:00:55;;;;;;;25.07;18.73;;;;;;;;;;6292899;28;20097;-61
2022/08/04 02:03:56;;;;;;;25.50;18.92;;;;;;;;;;6291460;28;20045;-60
2022/08/04 02:07:06;;;;;;;25.90;18.17;;;;;;;;;;6296313;28;20068;-60
2022/08/04 02:10:20;;;;;;;25.00;19.33;;;;;;;;;;6291215;28;20052;-60
2022/08/04 02:13:59;;;;;;;24.95;18.48;;;;;;;;;;6284473;28;20129;-60
2022/08/04 02:17:01;;;;;;;26.10;19.35;;;;;;;;;;6267073;28;20127;-61
2022/08/04 02:20:11;;;;;;;23.98;18.30;;;;;;;;;;6265376;28;20614;-61
2022/08/04 02:23:23;;;;;;;25.17;18.73;;;;;;;;;;6290096;28;20057;-57
2022/08/04 02:26:27;;;;;;;26.15;20.20;;;;;;;;;;6291546;28;20048;-58
2022/08/04 02:29:38;;;;;;;24.15;18.33;;;;;;;;;;6290941;28;20163;-59
2022/08/04 02:32:42;;;;;;;25.90;19.37;;;;;;;;;;6319688;28;20481;-61
2022/08/04 02:35:45;;;;;;;23.67;18.13;;;;;;;;;;6284149;28;20047;-61
2022/08/04 02:39:10;;;;;;;26.15;18.85;;;;;;;;;;6294565;28;20051;-61
2022/08/04 02:42:12;;;;;;;24.08;17.75;;;;;;;;;;6291677;28;20049;-61
2022/08/04 02:45:13;;;;;;;;;;;;;;;;;;6294578;28;20146;-61
2022/08/04 02:48:15;;;;;;;23.30;17.75;;;;;;;;;;6293069;28;19952;-61
2022/08/04 02:51:21;;;;;;;26.08;18.75;;;;;;;;;;6285759;28;20102;-61
2022/08/04 02:54:30;;;;;;;25.27;18.10;;;;;;;;;;6290309;28;20045;-61
2022/08/04 02:57:33;;;;;;;21.80;17.67;;;;;;;;;;6287678;28;20400;-58
2022/08/04 03:00:34;;;;;;;28.17;18.50;;;;;;;;;;6286415;28;20048;-60
2022/08/04 03:03:58;;;;;;;22.75;18.27;;;;;;;;;;6277980;28;20059;-60
2022/08/04 03:07:07;;;;;;;23.67;17.80;;;;;;;;;;6281918;28;20049;-60
2022/08/04 03:10:20;;;;;;;24.92;18.60;;;;;;;;;;6283423;28;20063;-60
2022/08/04 03:13:35;;;;;;;26.45;18.73;;;;;;;;;;6280805;28;20098;-61
2022/08/04 03:17:07;;;;;;;24.20;17.95;;;;;;;;;;6267007;28;20063;-60
2022/08/04 03:20:34;;;;;;;24.10;17.85;;;;;;;;;;6267565;28;20630;-61
2022/08/04 03:24:10;;;;;;;24.30;18.38;;;;;;;;;;6266514;28;20058;-60
2022/08/04 03:27:52;;;;;;;26.50;19.92;;;;;;;;;;6257108;28;20400;-59
2022/08/04 03:31:15;;;;;;;27.50;20.58;;;;;;;;;;6267952;28;20053;-61
2022/08/04 03:34:25;;;;;;;;;;;;;;;;;;6267797;28;20049;-62
2022/08/04 03:38:00;;;;;;;27.30;19.92;;;;;;;;;;6267295;28;19957;-60
2022/08/04 03:41:16;;;;;;;27.33;19.27;;;;;;;;;;6280827;28;20036;-61
2022/08/04 03:44:51;;;;;;;30.95;19.98;;;;;;;;;;6274414;28;20052;-60
2022/08/04 03:48:13;;;;;;;31.80;22.20;;;;;;;;;;6268046;28;20045;-59
2022/08/04 03:55:39;;;;;;;29.77;21.92;;;;;;;;;;6269008;28;20103;-61
2022/08/04 03:59:17;;;;;;;30.00;20.92;;;;;;;;;;6262423;28;20053;-61
2022/08/04 04:02:41;;;;;;;33.95;21.30;;;;;;;;;;6264683;28;20615;-59
2022/08/04 04:05:49;;;;;;;30.30;21.45;;;;;;;;;;6267172;28;20053;-60
2022/08/04 04:08:59;;;;;;;29.15;19.73;;;;;;;;;;6265556;28;20088;-61
2022/08/04 04:12:32;;;;;;;29.45;21.20;;;;;;;;;;6266096;28;20040;-61
2022/08/04 04:15:54;;;;;;;29.60;21.02;;;;;;;;;;6263297;28;20102;-61
2022/08/04 04:19:29;;;;;;;33.67;22.67;;;;;;;;;;6265462;28;20490;-59
2022/08/04 04:23:07;;;;;;;32.60;21.38;;;;;;;;;;6265682;28;20089;-60
2022/08/04 04:26:26;;;;;;;29.05;20.83;;;;;;;;;;6266957;28;20137;-61
2022/08/04 04:29:57;;;;;;;27.70;20.63;;;;;;;;;;6268210;28;20132;-60
2022/08/04 04:33:24;;;;;;;31.52;21.60;;;;;;;;;;6271645;28;20563;-60
2022/08/04 04:36:46;;;;;;;26.98;20.40;;;;;;;;;;6264419;28;20075;-61
2022/08/04 04:40:10;;;;;;;29.65;20.52;;;;;;;;;;6268157;28;20060;-59
2022/08/04 04:43:13;;;;;;;33.25;21.67;;;;;;;;;;6267415;28;20049;-59
2022/08/04 04:46:26;;;;;;;28.73;20.58;;;;;;;;;;6263994;28;20582;-59
2022/08/04 04:49:43;;;;;;;30.42;21.52;;;;;;;;;;6264422;28;20057;-59
2022/08/04 04:52:52;;;;;;;29.35;21.45;;;;;;;;;;6262910;28;20165;-60
2022/08/04 04:56:07;;;;;;;29.25;21.40;;;;;;;;;;6265009;28;20623;-60
2022/08/04 04:59:10;;;;;;;30.83;21.42;;;;;;;;;;6260274;28;20128;-59
2022/08/04 05:02:26;;;;;;;27.45;20.63;;;;;;;;;;6261320;28;20491;-61
2022/08/04 05:05:41;;;;;;;28.50;20.75;;;;;;;;;;6267203;28;20045;-61
2022/08/04 05:08:41;;;;;;;33.85;20.65;;;;;;;;;;6261934;28;20045;-59
2022/08/04 05:12:13;;;;;;;33.40;23.60;;;;;;;;;;6264634;28;20095;-61
2022/08/04 05:15:16;;;;;;;30.52;22.80;;;;;;;;;;6283104;28;20052;-61
2022/08/04 05:18:23;;;;;;;32.92;24.90;;;;;;;;;;6278196;28;20098;-60
2022/08/04 05:21:38;;;;;;;34.55;24.55;;;;;;;;;;6280107;28;20053;-60
2022/08/04 05:24:43;;;;;;;30.77;23.63;;;;;;;;;;6283905;28;20040;-60
2022/08/04 05:28:08;;;;;;;27.15;20.00;;;;;;;;;;6282603;28;20416;-60
2022/08/04 05:31:12;;;;;;;29.00;18.63;;;;;;;;;;6276711;28;20128;-60
2022/08/04 05:34:19;;;;;;;24.98;17.80;;;;;;;;;;6274160;28;20047;-60
2022/08/04 05:37:22;;;;;;;26.17;17.60;;;;;;;;;;6282334;28;20139;-59
2022/08/04 05:40:24;;;;;;;22.58;17.13;;;;;;;;;;6281094;28;20444;-58
2022/08/04 05:43:25;;;;;;;;;;;;;;;;;;6279180;28;20127;-60
2022/08/04 05:46:28;;;;;;;23.85;16.65;;;;;;;;;;6286974;28;19934;-62
2022/08/04 05:49:29;;;;;;;24.80;17.17;;;;;;;;;;6289946;28;20411;-62
2022/08/04 05:52:31;;;;;;;23.23;16.37;;;;;;;;;;6277264;28;20053;-60
2022/08/04 05:55:32;;;;;;;24.90;17.73;;;;;;;;;;6278960;28;20045;-61
2022/08/04 05:58:34;;;;;;;21.00;16.15;;;;;;;;;;6272461;28;20106;-61
2022/08/04 06:01:37;;;;;;;23.40;16.60;;;;;;;;;;6264668;28;20059;-61
2022/08/04 06:04:39;;;;;;;23.40;16.60;;;;;;;;;;6275038;28;20040;-60
2022/08/04 06:07:40;;;;;;;21.27;16.00;;;;;;;;;;6286100;28;20048;-61
2022/08/04 06:10:43;;;;;;;20.40;15.13;;;;;;;;;;6269818;28;20057;-61
2022/08/04 06:13:50;;;;;;;20.40;14.20;;;;;;;;;;6267267;28;20569;-62
2022/08/04 06:16:53;;;;;;;20.38;15.15;;;;;;;;;;6263979;28;20056;-61
2022/08/04 06:19:55;;;;;;;21.05;15.93;;;;;;;;;;6269938;28;20524;-61
2022/08/04 06:23:00;;;;;;;21.65;15.48;;;;;;;;;;6265238;28;20057;-60
2022/08/04 06:26:02;;;;;;;21.20;15.70;;;;;;;;;;6279704;28;20120;-61
2022/08/04 06:29:04;;;;;;;21.38;15.65;;;;;;;;;;6284083;28;20591;-61
2022/08/04 06:35:24;;;;;;;21.42;14.52;;;;;;;;;;6282265;28;19938;-60
2022/08/04 06:38:26;;;;;;;;;;;;;;;;;;6280249;28;20703;-60
2022/08/04 06:41:31;;;;;;;18.65;14.93;;;;;;;;;;6276431;28;19924;-60
2022/08/04 06:44:33;;;;;;;22.45;15.30;;;;;;;;;;6260781;28;20053;-59
2022/08/04 06:47:35;;;;;;;19.77;14.27;;;;;;;;;;6276097;28;20091;-61
2022/08/04 06:50:36;;;;;;;20.95;14.73;;;;;;;;;;6280595;28;20063;-61
2022/08/04 06:53:37;;;;;;;;;;;;;;;;;;6274301;28;20528;-61
2022/08/04 06:56:38;;;;;;;16.65;13.02;;;;;;;;;;6269426;28;20282;-59
2022/08/04 06:59:43;;;;;;;15.68;12.23;;;;;;;;;;6270859;28;20400;-60
2022/08/04 07:02:48;;;;;;;16.50;12.45;;;;;;;;;;6267225;28;20136;-60
2022/08/04 07:05:50;;;;;;;15.48;12.25;;;;;;;;;;6273486;28;20049;-60
2022/08/04 07:08:51;;;;;;;15.48;11.82;;;;;;;;;;6268787;28;20080;-60
2022/08/04 07:11:53;;;;;;;18.90;12.43;;;;;;;;;;6270509;28;20053;-56
2022/08/04 07:14:54;;;;;;;16.67;11.95;;;;;;;;;;6264842;28;20515;-61
2022/08/04 07:18:03;;;;;;;23.95;12.05;;;;;;;;;;6268772;28;20385;-61
2022/08/04 07:21:04;;;;;;;13.23;10.73;;;;;;;;;;6263365;28;20057;-60
2022/08/04 07:24:05;;;;;;;16.45;11.13;;;;;;;;;;6268047;28;20041;-61
2022/08/04 07:27:06;;;;;;;13.30;10.77;;;;;;;;;;6255040;28;20098;-59
2022/08/04 07:30:07;;;;;;;14.40;10.87;;;;;;;;;;6274655;28;20045;-60
2022/08/04 07:33:08;;;;;;;13.82;10.43;;;;;;;;;;6276760;28;20415;-60
2022/08/04 07:36:08;;;;;;;12.63;9.30;;;;;;;;;;6268415;28;20041;-60
2022/08/04 07:39:09;;;;;;;12.10;9.80;;;;;;;;;;6260182;28;20392;-61
2022/08/04 07:42:10;;;;;;;13.17;9.57;;;;;;;;;;6270095;28;20045;-61
2022/08/04 07:45:11;;;;;;;13.80;9.48;;;;;;;;;;6261181;28;20148;-59
2022/08/04 07:48:13;;;;;;;10.33;8.40;;;;;;;;;;6266054;28;20037;-60
2022/08/04 07:51:15;;;;;;;10.90;8.02;;;;;;;;;;6283295;28;20123;-60
2022/08/04 07:54:17;;;;;;;12.85;9.73;;;;;;;;;;6270189;28;20053;-59
2022/08/04 07:57:19;;;;;;;9.23;7.15;;;;;;;;;;6257262;28;20194;-64
2022/08/04 08:00:19;;;;;;;8.45;6.75;;;;;;;;;;6262365;28;20485;-61
2022/08/04 08:03:22;;;;;;;9.52;7.25;;;;;;;;;;6281767;28;20124;-61
2022/08/04 08:06:23;;;;;;;10.75;7.03;;;;;;;;;;6282853;28;20127;-61
2022/08/04 08:09:24;;;;;;;;;;;;;;;;;;6286776;28;20051;-61
2022/08/04 08:12:25;;;;;;;9.67;6.90;;;;;;;;;;6291227;28;19925;-62
2022/08/04 08:15:26;;;;;;;12.05;6.45;;;;;;;;;;6284020;28;20414;-59
2022/08/04 08:18:26;;;;;;;9.23;6.70;;;;;;;;;;6288034;28;20049;-60
2022/08/04 08:21:27;;;;;;;9.33;6.90;;;;;;;;;;6257090;28;20143;-62
2022/08/04 08:24:29;;;;;;;9.67;7.33;;;;;;;;;;6280108;28;20492;-59
2022/08/04 08:27:30;;;;;;;9.68;6.90;;;;;;;;;;6269438;28;20045;-58
2022/08/04 08:30:32;;;;;;;9.77;7.10;;;;;;;;;;6266452;28;20383;-61
2022/08/04 08:33:33;;;;;;;8.48;7.20;;;;;;;;;;6260521;28;20044;-60
2022/08/04 08:36:44;;;;;;;11.90;8.00;;;;;;;;;;6265862;28;20060;-59
2022/08/04 08:39:58;;;;;;;8.70;7.80;;;;;;;;;;6263606;28;20139;-61
2022/08/04 08:43:32;;;;;;;10.68;7.85;;;;;;;;;;6264740;28;20049;-61
2022/08/04 08:46:42;;;;;;;9.45;7.50;;;;;;;;;;6260852;28;20090;-60
2022/08/04 08:50:02;;;;;;;9.20;7.32;;;;;;;;;;6261255;28;20044;-61
2022/08/04 08:53:34;;;;;;;10.60;7.45;;;;;;;;;;6261936;28;20049;-61
2022/08/04 08:57:18;;;;;;;9.70;6.80;;;;;;;;;;6262021;28;20614;-58
2022/08/04 09:00:29;;;;;;;9.70;7.32;;;;;;;;;;6263392;28;20536;-60
2022/08/04 09:03:48;;;;;;;7.82;7.03;;;;;;;;;;6261699;28;20128;-59
2022/08/04 09:06:59;;;;;;;8.43;7.47;;;;;;;;;;6265252;28;20504;-61
2022/08/04 09:10:27;;;;;;;10.15;7.57;;;;;;;;;;6264100;28;20048;-62
2022/08/04 09:13:55;;;;;;;9.07;6.50;;;;;;;;;;6265893;28;20587;-59
2022/08/04 09:17:01;;;;;;;9.13;6.50;;;;;;;;;;6261444;28;20495;-60
2022/08/04 09:20:14;;;;;;;7.45;6.65;;;;;;;;;;6258391;28;20483;-62
2022/08/04 09:23:39;;;;;;;8.50;6.00;;;;;;;;;;6260986;28;20132;-60
2022/08/04 09:26:48;;;;;;;6.63;5.72;;;;;;;;;;6261911;28;20498;-60
2022/08/04 09:30:05;;;;;;;8.40;5.70;;;;;;;;;;6263993;28;20049;-61
2022/08/04 09:33:14;;;;;;;9.18;6.55;;;;;;;;;;6255987;28;20596;-62
2022/08/04 09:36:35;;;;;;;7.85;6.03;;;;;;;;;;6257269;28;20188;-59
2022/08/04 09:39:48;;;;;;;8.95;6.68;;;;;;;;;;6264182;28;20110;-62
2022/08/04 09:43:24;;;;;;;11.57;7.20;;;;;;;;;;6258791;28;20057;-60
2022/08/04 09:46:31;;;;;;;9.82;7.20;;;;;;;;;;6261724;28;20148;-62
2022/08/04 09:50:00;;;;;;;11.38;7.15;;;;;;;;;;6262608;28;20163;-62
2022/08/04 09:53:37;;;;;;;10.10;7.65;;;;;;;;;;6253772;28;20131;-61
2022/08/04 09:56:47;;;;;;;9.75;7.65;;;;;;;;;;6276023;28;20080;-62
2022/08/04 10:00:19;;;;;;;10.57;7.65;;;;;;;;;;6278786;28;20575;-62
2022/08/04 10:03:24;;;;;;;12.73;7.32;;;;;;;;;;6276097;28;20049;-61
2022/08/04 10:06:43;;;;;;;8.98;6.60;;;;;;;;;;6277180;28;20162;-62
2022/08/04 10:09:46;;;;;;;8.07;7.28;;;;;;;;;;6286267;28;20076;-57
2022/08/04 10:13:07;;;;;;;10.00;7.78;;;;;;;;;;6275003;28;20055;-61
2022/08/04 10:16:34;;;;;;;11.57;7.20;;;;;;;;;;6278844;28;20129;-61
2022/08/04 10:19:37;;;;;;;9.88;7.10;;;;;;;;;;6281478;28;20047;-62
2022/08/04 10:22:55;;;;;;;8.80;7.00;;;;;;;;;;6255237;28;20071;-58
2022/08/04 10:26:10;;;;;;;8.88;7.22;;;;;;;;;;6268048;28;20156;-60
2022/08/04 10:29:18;;;;;;;12.40;11.02;;;;;;;;;;6266555;28;20106;-61
2022/08/04 10:32:48;;;;;;;9.73;7.97;;;;;;;;;;6261531;28;20044;-60
2022/08/04 10:35:56;;;;;;;10.23;7.93;;;;;;;;;;6240407;28;20055;-60
2022/08/04 10:39:11;;;;;;;8.05;6.72;;;;;;;;;;6260964;28;20041;-60
2022/08/04 10:42:23;;;;;;;10.25;6.53;;;;;;;;;;6263748;28;20487;-64
2022/08/04 10:45:31;;;;;;;7.47;6.18;;;;;;;;;;6283153;28;20147;-63
2022/08/04 10:48:55;;;;;;;10.05;6.60;;;;;;;;;;6287937;28;20454;-62
2022/08/04 10:52:04;;;;;;;9.60;7.18;;;;;;;;;;6286692;28;20531;-61
2022/08/04 10:55:22;;;;;;;7.53;6.60;;;;;;;;;;6284087;28;20056;-62
2022/08/04 10:58:28;;;;;;;7.85;6.13;;;;;;;;;;6286528;28;20509;-62
2022/08/04 11:01:42;;;;;;;9.07;6.82;;;;;;;;;;6286695;28;20503;-60
2022/08/04 11:04:51;;;;;;;9.80;6.97;;;;;;;;;;6276408;28;20399;-63
2022/08/04 11:08:04;;;;;;;8.32;6.72;;;;;;;;;;6291557;28;20037;-61
2022/08/04 11:11:04;;;;;;;9.15;7.00;;;;;;;;;;6282783;28;20040;-64
2022/08/04 11:14:18;;;;;;;9.33;7.50;;;;;;;;;;6283118;28;20097;-62
2022/08/04 11:17:24;;;;;;;7.63;6.85;;;;;;;;;;6282801;28;20174;-65
2022/08/04 11:20:37;;;;;;;12.52;9.38;;;;;;;;;;6288794;28;20411;-65
2022/08/04 11:23:45;;;;;;;7.22;6.53;;;;;;;;;;6277588;28;20136;-59
2022/08/04 11:26:58;;;;;;;10.85;7.30;;;;;;;;;;6280736;28;20883;-63
2022/08/04 11:30:03;;;;;;;13.80;12.38;;;;;;;;;;6285092;28;20055;-61
2022/08/04 11:33:22;;;;;;;8.48;7.13;;;;;;;;;;6284290;28;20135;-61
2022/08/04 11:36:31;;;;;;;12.45;7.93;;;;;;;;;;6281925;28;20135;-61
2022/08/04 11:39:41;;;;;;;10.70;7.03;;;;;;;;;;6289751;28;20087;-62
2022/08/04 11:42:53;;;;;;;10.45;7.63;;;;;;;;;;6288559;28;20140;-60
2022/08/04 11:46:00;;;;;;;9.65;7.32;;;;;;;;;;6275943;28;20057;-60
2022/08/04 11:49:14;;;;;;;12.00;9.70;;;;;;;;;;6282369;28;20045;-67
2022/08/04 11:52:16;;;;;;;13.32;10.27;;;;;;;;;;6286808;28;20055;-62
2022/08/04 11:55:20;;;;;;;10.48;8.10;;;;;;;;;;6287570;28;20052;-59
2022/08/04 11:58:21;;;;;;;8.18;7.38;;;;;;;;;;6287221;28;20044;-62
2022/08/04 12:02:00;;;;;;;12.23;10.38;;;;;;;;;;6290748;28;20152;-59
2022/08/04 12:05:03;;;;;;;8.80;7.30;;;;;;;;;;6264679;28;20048;-59
2022/08/04 12:08:16;;;;;;;11.85;7.88;;;;;;;;;;6255445;28;20060;-60
2022/08/04 12:11:29;;;;;;;10.98;7.55;;;;;;;;;;6256443;28;20057;-58
2022/08/04 12:14:43;;;;;;;7.90;7.07;;;;;;;;;;6255688;28;20053;-61
2022/08/04 12:18:17;;;;;;;9.77;7.50;;;;;;;;;;6256111;28;20111;-61
2022/08/04 12:21:36;;;;;;;9.85;7.20;;;;;;;;;;6256324;28;20049;-56
2022/08/04 12:24:43;;;;;;;8.90;7.25;;;;;;;;;;6256798;28;20044;-63
2022/08/04 12:27:50;;;;;;;9.35;6.82;;;;;;;;;;6255636;28;20553;-61
2022/08/04 12:30:59;;;;;;;7.93;7.13;;;;;;;;;;6258616;28;20056;-63
2022/08/04 12:34:25;;;;;;;9.15;7.00;;;;;;;;;;6258185;28;20052;-63
2022/08/04 12:37:50;;;;;;;13.45;7.03;;;;;;;;;;6253248;28;20510;-62
2022/08/04 12:40:55;;;;;;;8.98;6.90;;;;;;;;;;6255190;28;20214;-60
2022/08/04 12:44:04;;;;;;;7.75;6.95;;;;;;;;;;6258425;28;20076;-60
2022/08/04 12:47:10;;;;;;;9.90;7.72;;;;;;;;;;6256590;28;20060;-60
2022/08/04 12:50:13;;;;;;;8.95;7.57;;;;;;;;;;6253707;28;20544;-59
2022/08/04 12:53:17;;;;;;;8.23;7.10;;;;;;;;;;6258968;28;20055;-60
2022/08/04 12:56:25;;;;;;;13.80;7.15;;;;;;;;;;6255908;28;20051;-63
2022/08/04 12:59:26;;;;;;;9.70;7.55;;;;;;;;;;6257476;28;20125;-60
2022/08/04 13:02:30;;;;;;;9.83;7.67;;;;;;;;;;6258494;28;20041;-58
2022/08/04 13:05:32;;;;;;;7.90;6.82;;;;;;;;;;6254937;28;20061;-60
2022/08/04 13:08:38;;;;;;;10.00;7.20;;;;;;;;;;6257258;28;20564;-62
2022/08/04 13:11:41;;;;;;;10.07;7.25;;;;;;;;;;6255621;28;20052;-60
2022/08/04 13:14:44;;;;;;;8.35;7.00;;;;;;;;;;6256429;28;20060;-60
2022/08/04 13:17:51;;;;;;;9.60;7.70;;;;;;;;;;6255959;28;20049;-58
2022/08/04 13:20:52;;;;;;;8.18;7.03;;;;;;;;;;6259452;28;20130;-60
2022/08/04 13:24:00;;;;;;;;;;;;;;;;;;6260161;28;20095;-62
2022/08/04 13:27:07;;;;;;;10.00;7.70;;;;;;;;;;6255357;28;20055;-56
2022/08/04 13:30:09;;;;;;;9.63;7.18;;;;;;;;;;6258002;28;20048;-60
2022/08/04 13:33:11;;;;;;;7.47;6.75;;;;;;;;;;6257115;28;20126;-60
2022/08/04 13:36:13;;;;;;;7.45;6.70;;;;;;;;;;6259741;28;20078;-61
2022/08/04 13:39:20;;;;;;;7.65;6.85;;;;;;;;;;6251708;28;20057;-59
2022/08/04 13:42:21;;;;;;;9.05;7.38;;;;;;;;;;6254728;28;20059;-58
2022/08/04 13:45:24;;;;;;;9.68;6.93;;;;;;;;;;6254879;28;20065;-57
2022/08/04 13:48:29;;;;;;;7.72;6.65;;;;;;;;;;6257882;28;20052;-66
2022/08/04 13:51:30;;;;;;;8.70;6.72;;;;;;;;;;6256582;28;20049;-62
2022/08/04 13:54:44;;;;;;;7.22;6.53;;;;;;;;;;6263937;28;20041;-62
2022/08/04 13:57:48;;;;;;;7.97;7.13;;;;;;;;;;6266192;28;20052;-63
2022/08/04 14:00:58;;;;;;;7.65;6.88;;;;;;;;;;6273374;28;20183;-61
2022/08/04 14:04:12;;;;;;;7.88;7.05;;;;;;;;;;6272323;28;20128;-64
2022/08/04 14:07:15;;;;;;;8.35;7.18;;;;;;;;;;6271621;28;20152;-63
2022/08/04 14:10:16;;;;;;;11.60;7.15;;;;;;;;;;6276108;28;20419;-64
2022/08/04 14:13:28;;;;;;;8.95;7.32;;;;;;;;;;6273467;28;20045;-63
2022/08/04 14:16:28;;;;;;;8.50;7.60;;;;;;;;;;6271006;28;20045;-61
2022/08/04 14:19:47;;;;;;;10.20;7.43;;;;;;;;;;6271338;28;20055;-59
2022/08/04 14:22:47;;;;;;;8.20;7.40;;;;;;;;;;6275133;28;20056;-61
2022/08/04 14:25:48;;;;;;;;;;;;;;;;;;6279823;28;20071;-64
2022/08/04 14:28:50;;;;;;;8.57;7.67;;;;;;;;;;6287738;28;20438;-62
2022/08/04 14:31:59;;;;;;;9.65;7.25;;;;;;;;;;6291949;28;20053;-62
2022/08/04 14:35:09;;;;;;;12.68;7.30;;;;;;;;;;6289017;28;20036;-64
2022/08/04 14:38:10;;;;;;;12.47;7.50;;;;;;;;;;6286196;28;20128;-66
2022/08/04 14:41:12;;;;;;;;;;;;;;;;;;6291579;28;20044;-63
2022/08/04 14:44:13;;;;;;;9.27;6.55;;;;;;;;;;6280233;28;20050;-61
2022/08/04 14:47:13;;;;;;;;;;;;;;;;;;6271997;28;20052;-66
2022/08/04 14:50:14;;;;;;;8.30;7.50;;;;;;;;;;6269189;28;19998;-62
2022/08/04 14:53:19;;;;;;;;;;;;;;;;;;6272671;28;20033;-63
2022/08/04 14:56:20;;;;;;;8.15;7.20;;;;;;;;;;6271832;28;19921;-62
2022/08/04 14:59:20;;;;;;;;;;;;;;;;;;6264948;28;20393;-63
2022/08/04 15:02:22;;;;;;;11.07;7.50;;;;;;;;;;6266358;28;20023;-62
2022/08/04 15:05:22;;;;;;;8.90;7.47;;;;;;;;;;6265898;28;20072;-65
2022/08/04 15:08:24;;;;;;;;;;;;;;;;;;6266379;28;20582;-63
2022/08/04 15:11:25;;;;;;;9.93;7.70;;;;;;;;;;6257488;28;19937;-64
2022/08/04 15:14:26;;;;;;;10.32;7.60;;;;;;;;;;6263025;28;20171;-64
2022/08/04 15:17:27;;;;;;;;;;;;;;;;;;6265718;28;20052;-66
2022/08/04 15:20:29;;;;;;;8.20;7.37;;;;;;;;;;6268155;28;19971;-67
2022/08/04 15:23:30;;;;;;;8.65;7.50;;;;;;;;;;6271472;28;20152;-64
2022/08/04 15:26:34;;;;;;;;;;;;;;;;;;6286707;28;20100;-65
2022/08/04 15:29:46;;;;;;;8.38;7.57;;;;;;;;;;6268143;28;19924;-63
2022/08/04 15:32:54;;;;;;;11.85;7.72;;;;;;;;;;6260896;28;20137;-61
2022/08/04 15:36:29;;;;;;;14.75;7.88;;;;;;;;;;6253017;28;20045;-63
2022/08/04 15:39:42;;;;;;;9.57;7.90;;;;;;;;;;6262192;28;20064;-59
2022/08/04 15:43:21;;;;;;;9.10;7.78;;;;;;;;;;6261514;28;20052;-67
2022/08/04 15:46:44;;;;;;;10.18;7.60;;;;;;;;;;6264248;28;20180;-65
2022/08/04 15:50:02;;;;;;;9.27;7.85;;;;;;;;;;6263953;28;20052;-66
2022/08/04 15:53:04;;;;;;;9.55;7.63;;;;;;;;;;6265992;28;20140;-66
2022/08/04 15:56:22;;;;;;;10.25;7.72;;;;;;;;;;6262903;28;20049;-64
2022/08/04 16:00:01;;;;;;;8.38;7.20;;;;;;;;;;6268727;28;20051;-63
2022/08/04 16:03:02;;;;;;;8.13;7.32;;;;;;;;;;6273280;28;20049;-64
2022/08/04 16:06:06;;;;;;;;;;;;;;;;;;6284156;28;20044;-64
2022/08/04 16:09:06;;;;;;;8.43;7.55;;;;;;;;;;6272297;28;20363;-65
2022/08/04 16:12:07;;;;;;;;;;;;;;;;;;6278696;28;20659;-65
2022/08/04 16:15:35;;;;;;;8.77;7.87;;;;;;;;;;6282734;28;19924;-63
2022/08/04 16:18:38;;;;;;;13.82;8.52;;;;;;;;;;6276979;28;20773;-62
2022/08/04 16:21:53;;;;;;;8.13;7.07;;;;;;;;;;6281027;28;20099;-65
2022/08/04 16:24:53;;;;;;;10.25;7.60;;;;;;;;;;6285009;28;20298;-64
2022/08/04 16:27:54;;;;;;;10.07;8.05;;;;;;;;;;6279286;28;20474;-59
2022/08/04 16:31:01;;;;;;;11.90;8.07;;;;;;;;;;6269524;28;20049;-66
2022/08/04 16:34:01;;;;;;;9.77;8.13;;;;;;;;;;6263765;28;20427;-62
2022/08/04 16:37:04;;;;;;;11.70;7.80;;;;;;;;;;6264835;28;20049;-65
2022/08/04 16:40:27;;;;;;;9.35;7.68;;;;;;;;;;6264493;28;20044;-65
2022/08/04 16:43:31;;;;;;;10.10;7.90;;;;;;;;;;6257089;28;20143;-63
2022/08/04 16:46:43;;;;;;;10.82;7.55;;;;;;;;;;6257485;28;20459;-64
2022/08/04 16:49:44;;;;;;;10.90;7.45;;;;;;;;;;6264909;28;20407;-62
2022/08/04 16:52:46;;;;;;;10.13;7.70;;;;;;;;;;6260237;28;20052;-65
2022/08/04 16:55:49;;;;;;;11.23;7.57;;;;;;;;;;6264778;28;20807;-64
2022/08/04 16:58:50;;;;;;;11.85;7.90;;;;;;;;;;6274121;28;20487;-62
2022/08/04 17:01:53;;;;;;;12.20;7.65;;;;;;;;;;6264181;28;20102;-62
2022/08/04 17:04:53;;;;;;;8.95;7.70;;;;;;;;;;6250462;28;20044;-64
2022/08/04 17:07:56;;;;;;;9.38;7.70;;;;;;;;;;6268802;28;20056;-62
2022/08/04 17:10:56;;;;;;;11.20;8.00;;;;;;;;;;6269097;28;20048;-66
2022/08/04 17:13:57;;;;;;;10.75;7.90;;;;;;;;;;6264910;28;20053;-63
2022/08/04 17:17:00;;;;;;;12.60;7.75;;;;;;;;;;6266246;28;20051;-65
2022/08/04 17:20:00;;;;;;;8.82;7.70;;;;;;;;;;6270877;28;20049;-63
2022/08/04 17:23:40;;;;;;;10.33;7.83;;;;;;;;;;6265330;28;20051;-64
2022/08/04 17:26:41;;;;;;;12.18;7.35;;;;;;;;;;6274715;28;20046;-65
2022/08/04 17:29:42;;;;;;;9.25;7.45;;;;;;;;;;6282586;28;20064;-65
2022/08/04 17:32:43;;;;;;;11.70;7.63;;;;;;;;;;6283553;28;20099;-63
2022/08/04 17:35:44;;;;;;;8.90;7.30;;;;;;;;;;6267059;28;20059;-66
2022/08/04 17:38:53;;;;;;;9.75;7.57;;;;;;;;;;6271092;28;20045;-63
2022/08/04 17:41:55;;;;;;;13.55;7.68;;;;;;;;;;6282853;28;20419;-59
2022/08/04 17:45:16;;;;;;;10.85;7.45;;;;;;;;;;6279361;28;20052;-62
2022/08/04 17:48:19;;;;;;;10.75;7.25;;;;;;;;;;6281713;28;20824;-65
2022/08/04 17:51:19;;;;;;;13.35;6.93;;;;;;;;;;6278893;28;20131;-62
2022/08/04 17:54:31;;;;;;;8.53;7.20;;;;;;;;;;6280395;28;20461;-61
2022/08/04 17:57:32;;;;;;;11.70;8.10;;;;;;;;;;6282416;28;20517;-65
2022/08/04 18:00:34;;;;;;;10.10;7.45;;;;;;;;;;6281987;28;20041;-61
2022/08/04 18:03:35;;;;;;;12.45;7.55;;;;;;;;;;6281593;28;20098;-59
2022/08/04 18:06:36;;;;;;;10.30;7.80;;;;;;;;;;6265106;28;20044;-59
2022/08/04 18:09:40;;;;;;;10.57;7.80;;;;;;;;;;6251746;28;20681;-61
2022/08/04 18:12:42;;;;;;;12.98;8.00;;;;;;;;;;6259448;28;20832;-62
2022/08/04 18:15:43;;;;;;;10.43;8.43;;;;;;;;;;6257270;28;20601;-63
2022/08/04 18:18:43;;;;;;;33.95;27.92;;;;;;;;;;6248270;28;20049;-61
2022/08/04 18:21:44;;;;;;;14.50;9.80;;;;;;;;;;6257434;28;20064;-63
2022/08/04 18:24:45;;;;;;;22.90;17.98;;;;;;;;;;6257304;28;20126;-59
2022/08/04 18:27:48;;;;;;;22.90;16.70;;;;;;;;;;6255199;28;20056;-63
2022/08/04 18:30:48;;;;;;;10.40;8.85;;;;;;;;;;6253889;28;21215;-62
2022/08/04 18:33:49;;;;;;;13.60;8.88;;;;;;;;;;6258884;28;20045;-59
2022/08/04 18:36:50;;;;;;;25.77;21.37;;;;;;;;;;6254287;28;20102;-59
2022/08/04 18:39:50;;;;;;;36.47;26.38;;;;;;;;;;6256907;28;20545;-60
2022/08/04 18:42:51;;;;;;;58.93;52.27;;;;;;;;;;6261859;28;20538;-61
2022/08/04 18:45:52;;;;;;;19.40;14.80;;;;;;;;;;6260421;28;20309;-59
2022/08/04 18:48:52;;;;;;;16.60;13.80;;;;;;;;;;6259372;28;20763;-65
2022/08/04 18:51:54;;;;;;;19.10;15.05;;;;;;;;;;6258517;28;20526;-63
2022/08/04 18:54:54;;;;;;;;;;;;;;;;;;6262658;28;20171;-60